Pintail — WDF5177 — position and weather

sailwx.info

Track history (hours):
 
Tides and Currents Weather Stations Pressure Air Temp Water Temp Dewpoint Dewpoint Depression Visibility Wind Speed Wind Dir Waves Ship Positions

Pintail

Owner: Pintail Marine Services, Inc, Friday Harbor, WA. More information available from US FCC via Universal Licensing System and Coast Guard Vessel Documentation Center.

Last reported at 2018-Apr-19 19:28 UTC. Time now 2018-Apr-20 00:43 UTC.
Position N 48°32' W 122°43'.

Length 19 m.

Type: Towing. MMSI: 367460260.

Date/timePositionNaut miles runAvg speedWind from/ knotsBaromVisibWave heightAir tempDewpointWater temp
2018-Apr-19 19:28N 48°32' W 122°43'3 6.5
2018-Apr-19 19:00N 48°32' W 122°47'4 6.9
2018-Apr-19 18:28N 48°34' W 122°52'1 1.7
2018-Apr-19 17:55N 48°33' W 122°53'0 0.0
2018-Apr-19 17:12N 48°33' W 122°53'1 4.2
2018-Apr-19 16:59N 48°34' W 122°53'2 4.5
2018-Apr-19 16:30N 48°33' W 122°51'1 1.3
2018-Apr-19 15:59N 48°33' W 122°51'1 3.0
2018-Apr-19 15:30N 48°33' W 122°53'2 3.1
2018-Apr-19 14:59N 48°33' W 122°51'3 6.5
2018-Apr-19 14:29N 48°32' W 122°47'0 0.0
2018-Apr-18 22:22N 48°31' W 122°47'2 6.3
2018-Apr-18 22:00N 48°33' W 122°50'3 6.2
2018-Apr-18 21:30N 48°34' W 122°54'4 7.4
2018-Apr-18 21:00N 48°32' W 122°59'1 1.3
2018-Apr-18 20:30N 48°32' W 122°60'3 6.3
2018-Apr-18 20:00N 48°33' W 122°55'2 4.9
2018-Apr-18 19:30N 48°34' W 122°52'3 5.9
2018-Apr-18 19:00N 48°32' W 122°48'3 6.2
2018-Apr-18 18:30N 48°32' W 122°44'2 0.1
2018-Apr-17 22:10N 48°31' W 122°47'1 6.0
2018-Apr-17 21:59N 48°32' W 122°49'3 6.5
2018-Apr-17 21:28N 48°34' W 122°52'3 6.9
2018-Apr-17 21:00N 48°32' W 122°57'2 4.6
2018-Apr-17 20:29N 48°32' W 122°60'0 0.0
2018-Apr-17 20:00N 48°32' W 122°60'0 0.2
2018-Apr-17 19:29N 48°32' W 122°60'0 0.0
2018-Apr-17 18:59N 48°32' W 122°60'0 0.0
2018-Apr-17 18:20N 48°32' W 122°60'0 0.0
2018-Apr-17 17:59N 48°32' W 122°60'0 0.0
2018-Apr-17 17:28N 48°32' W 122°60'1 1.8
2018-Apr-17 16:59N 48°32' W 122°59'3 5.5
2018-Apr-17 16:29N 48°33' W 122°55'3 5.2
2018-Apr-17 16:00N 48°34' W 122°51'3 5.7
2018-Apr-17 15:30N 48°32' W 122°48'1 0.1
2018-Apr-17 00:20N 48°31' W 122°46'2 6.9
2018-Apr-17 00:00N 48°32' W 122°49'3 6.3
2018-Apr-16 23:29N 48°34' W 122°53'3 6.7
2018-Apr-16 22:59N 48°32' W 122°57'2 4.4
2018-Apr-16 22:29N 48°32' W 122°60'0 0.0
2018-Apr-16 21:53N 48°32' W 122°60'0 0.0
2018-Apr-16 21:29N 48°32' W 122°60'0 0.0
2018-Apr-16 20:53N 48°32' W 122°60'0 0.0
2018-Apr-16 20:30N 48°32' W 122°60'0 0.1
2018-Apr-16 19:51N 48°32' W 122°60'2 4.6
2018-Apr-16 19:30N 48°32' W 122°58'3 6.3
2018-Apr-16 19:00N 48°34' W 122°54'3 5.5
2018-Apr-16 18:30N 48°33' W 122°50'3 6.0
2018-Apr-16 18:00N 48°32' W 122°46'1 0.5
2018-Apr-16 15:43N 48°32' W 122°44'2 6.7
2018-Apr-16 15:29N 48°32' W 122°46'3 6.6
2018-Apr-16 15:00N 48°33' W 122°51'3 5.2
2018-Apr-16 14:30N 48°34' W 122°54'3 6.8
2018-Apr-16 14:00N 48°32' W 122°59'1 1.5
2018-Apr-16 13:29N 48°32' W 122°60'0 0.0
2018-Apr-16 12:59N 48°32' W 122°60'0 0.0
2018-Apr-16 12:29N 48°32' W 122°60'0 0.0
2018-Apr-16 11:59N 48°32' W 122°60'0 0.0
2018-Apr-16 11:29N 48°32' W 122°60'0 0.0
2018-Apr-16 10:59N 48°32' W 122°60'0 0.0
2018-Apr-16 10:29N 48°32' W 122°60'0 0.0
2018-Apr-16 09:59N 48°32' W 122°60'0 0.0
2018-Apr-16 09:29N 48°32' W 122°60'0 0.0
2018-Apr-16 08:59N 48°32' W 122°60'0 0.0
2018-Apr-16 08:29N 48°32' W 122°60'0 0.0
2018-Apr-16 07:59N 48°32' W 122°60'0 0.0
2018-Apr-16 07:29N 48°32' W 122°60'0 0.0
2018-Apr-16 06:59N 48°32' W 122°60'0 0.0
2018-Apr-16 06:29N 48°32' W 122°60'0 0.0
2018-Apr-16 05:59N 48°32' W 122°60'0 0.0
2018-Apr-16 05:29N 48°32' W 122°60'0 0.0
2018-Apr-16 04:59N 48°32' W 122°60'0 0.0
2018-Apr-16 04:29N 48°32' W 122°60'0 0.0
2018-Apr-16 03:59N 48°32' W 122°60'0 0.0
2018-Apr-16 03:29N 48°32' W 122°60'0 0.0
2018-Apr-16 02:59N 48°32' W 122°60'0 0.0
2018-Apr-16 02:29N 48°32' W 122°60'0 0.0
2018-Apr-16 01:59N 48°32' W 122°60'0 0.0
2018-Apr-16 01:29N 48°32' W 122°60'0 0.0
2018-Apr-16 01:00N 48°32' W 122°60'0 0.0
2018-Apr-16 00:30N 48°32' W 122°60'0 0.0
2018-Apr-15 23:50N 48°32' W 122°60'0 0.0
2018-Apr-15 23:29N 48°32' W 122°60'0 0.0
2018-Apr-15 22:59N 48°32' W 122°60'0 0.0
2018-Apr-15 22:29N 48°32' W 122°60'0 0.0
2018-Apr-15 21:59N 48°32' W 122°60'0 0.0
2018-Apr-15 21:29N 48°32' W 122°60'0 0.0
2018-Apr-15 20:59N 48°32' W 122°60'0 0.0
2018-Apr-15 20:29N 48°32' W 122°60'0 0.0
2018-Apr-15 19:59N 48°32' W 122°60'0 0.0
2018-Apr-15 19:26N 48°32' W 122°60'0 0.0
2018-Apr-15 18:59N 48°32' W 122°60'0 0.0
2018-Apr-15 18:29N 48°32' W 122°60'0 0.0
2018-Apr-15 17:59N 48°32' W 122°60'0 0.0
2018-Apr-15 17:29N 48°32' W 122°60'0 0.0
2018-Apr-15 16:56N 48°32' W 122°60'0 0.0
2018-Apr-15 16:26N 48°32' W 122°60'0 0.0
2018-Apr-15 15:53N 48°32' W 122°60'0 0.0
2018-Apr-15 15:29N 48°32' W 122°60'0 0.0
2018-Apr-15 14:56N 48°32' W 122°60'0 0.0
2018-Apr-15 14:29N 48°32' W 122°60'0 0.0
2018-Apr-15 13:59N 48°32' W 122°60'0 0.0
2018-Apr-15 13:29N 48°32' W 122°60'0 0.0
2018-Apr-15 12:59N 48°32' W 122°60'0 0.0
2018-Apr-15 12:20N 48°32' W 122°60'0 0.0
2018-Apr-15 11:59N 48°32' W 122°60'0 0.0
2018-Apr-15 11:17N 48°32' W 122°60'0 0.0
2018-Apr-15 10:59N 48°32' W 122°60'0 0.0
2018-Apr-15 10:29N 48°32' W 122°60'0 0.0
2018-Apr-15 09:59N 48°32' W 122°60'0 0.0
2018-Apr-15 09:26N 48°32' W 122°60'0 0.0
2018-Apr-15 08:56N 48°32' W 122°60'0 0.0
2018-Apr-15 08:29N 48°32' W 122°60'0 0.0
2018-Apr-15 07:59N 48°32' W 122°60'0 0.0
2018-Apr-15 07:29N 48°32' W 122°60'0 0.0
2018-Apr-15 06:59N 48°32' W 122°60'0 0.0
2018-Apr-15 06:29N 48°32' W 122°60'0 0.0
2018-Apr-15 05:59N 48°32' W 122°60'0 0.0
2018-Apr-15 05:14N 48°32' W 122°60'0 0.0
2018-Apr-15 04:59N 48°32' W 122°60'0 0.0
2018-Apr-15 04:29N 48°32' W 122°60'0 0.0
2018-Apr-15 03:59N 48°32' W 122°60'0 0.0
2018-Apr-15 03:29N 48°32' W 122°60'0 0.0
2018-Apr-15 02:59N 48°32' W 122°60'0 0.0
2018-Apr-15 02:29N 48°32' W 122°60'0 0.0
2018-Apr-15 01:59N 48°32' W 122°60'0 0.0
2018-Apr-15 01:29N 48°32' W 122°60'0 0.0
2018-Apr-15 00:59N 48°32' W 122°60'0 0.0
2018-Apr-15 00:29N 48°32' W 122°60'0 0.0
2018-Apr-14 23:59N 48°32' W 122°60'0 0.0
2018-Apr-14 23:23N 48°32' W 122°60'0 0.0
2018-Apr-14 22:59N 48°32' W 122°60'0 0.0
2018-Apr-14 22:29N 48°32' W 122°60'0 0.0
2018-Apr-14 21:59N 48°32' W 122°60'0 0.0
2018-Apr-14 21:29N 48°32' W 122°60'0 0.0
2018-Apr-14 20:59N 48°32' W 122°60'0 0.0
2018-Apr-14 20:29N 48°32' W 122°60'0 0.0
2018-Apr-14 19:59N 48°32' W 122°60'0 0.0
2018-Apr-14 19:29N 48°32' W 122°60'0 0.0
2018-Apr-14 18:53N 48°32' W 122°60'0 0.0
2018-Apr-14 18:29N 48°32' W 122°60'0 0.0
2018-Apr-14 17:59N 48°32' W 122°60'0 0.0
2018-Apr-14 17:29N 48°32' W 122°60'0 0.0
2018-Apr-14 16:59N 48°32' W 122°60'0 0.0
2018-Apr-14 16:29N 48°32' W 122°60'0 0.0
2018-Apr-14 15:59N 48°32' W 122°60'0 0.0
2018-Apr-14 15:29N 48°32' W 122°60'0 0.0
2018-Apr-14 14:53N 48°32' W 122°60'0 0.0
2018-Apr-14 14:29N 48°32' W 122°60'0 0.0
2018-Apr-14 13:59N 48°32' W 122°60'0 0.0
2018-Apr-14 13:23N 48°32' W 122°60'0 0.0
2018-Apr-14 12:59N 48°32' W 122°60'0 0.0
2018-Apr-14 12:29N 48°32' W 122°60'0 0.0
2018-Apr-14 11:59N 48°32' W 122°60'0 0.0
2018-Apr-14 11:29N 48°32' W 122°60'0 0.0
2018-Apr-14 10:59N 48°32' W 122°60'0 0.0
2018-Apr-14 10:23N 48°32' W 122°60'0 0.0
2018-Apr-14 09:59N 48°32' W 122°60'0 0.0
2018-Apr-14 09:23N 48°32' W 122°60'0 0.0
2018-Apr-14 08:59N 48°32' W 122°60'0 0.0
2018-Apr-14 08:29N 48°32' W 122°60'0 0.0
2018-Apr-14 07:53N 48°32' W 122°60'0 0.0
2018-Apr-14 07:29N 48°32' W 122°60'0 0.0
2018-Apr-14 06:59N 48°32' W 122°60'0 0.0
2018-Apr-14 06:29N 48°32' W 122°60'0 0.0
2018-Apr-14 05:59N 48°32' W 122°60'0 0.0
2018-Apr-14 05:29N 48°32' W 122°60'0 0.0
2018-Apr-14 04:59N 48°32' W 122°60'0 0.0
2018-Apr-14 04:29N 48°32' W 122°60'0 0.0
2018-Apr-14 03:59N 48°32' W 122°60'0 0.0
2018-Apr-14 03:26N 48°32' W 122°60'0 0.0
2018-Apr-14 02:59N 48°32' W 122°60'0 0.0
2018-Apr-14 02:29N 48°32' W 122°60'0 0.0
2018-Apr-14 01:59N 48°32' W 122°60'0 0.0
2018-Apr-14 01:29N 48°32' W 122°60'0 0.0
2018-Apr-14 00:53N 48°32' W 122°60'0 0.0
2018-Apr-14 00:29N 48°32' W 122°60'0 0.0
2018-Apr-13 23:59N 48°32' W 122°60'0 0.0
2018-Apr-13 23:29N 48°32' W 122°60'0 0.0
2018-Apr-13 22:59N 48°32' W 122°60'0 0.0
2018-Apr-13 22:29N 48°32' W 122°60'0 0.0
2018-Apr-13 21:59N 48°32' W 122°60'0 0.0
2018-Apr-13 21:20N 48°32' W 122°60'0 0.0
2018-Apr-13 20:59N 48°32' W 122°60'0 0.0
2018-Apr-13 20:29N 48°32' W 122°60'1 2.0
2018-Apr-13 20:00N 48°32' W 122°59'3 6.2
2018-Apr-13 19:30N 48°34' W 122°55'3 5.4
2018-Apr-13 19:00N 48°33' W 122°51'3 6.1
2018-Apr-13 18:30N 48°32' W 122°46'  
Track history (hours):
 
Tides and Currents Weather Stations Pressure Air Temp Water Temp Dewpoint Dewpoint Depression Visibility Wind Speed Wind Dir Waves Ship Positions

Pintail

Owner: Pintail Marine Services, Inc, Friday Harbor, WA. More information available from US FCC via Universal Licensing System and Coast Guard Vessel Documentation Center.

Last reported at 2018-Apr-19 19:28 UTC. Time now 2018-Apr-20 00:43 UTC.
Position N 48°32' W 122°43'.

Length 19 m.

Type: Towing. MMSI: 367460260.

Date/timePositionNaut miles runAvg speedWind from/ knotsBaromVisibWave heightAir tempDewpointWater temp
2018-Apr-19 19:28N 48°32' W 122°43'3 6.5
2018-Apr-19 19:00N 48°32' W 122°47'4 6.9
2018-Apr-19 18:28N 48°34' W 122°52'1 1.7
2018-Apr-19 17:55N 48°33' W 122°53'0 0.0
2018-Apr-19 17:12N 48°33' W 122°53'1 4.2
2018-Apr-19 16:59N 48°34' W 122°53'2 4.5
2018-Apr-19 16:30N 48°33' W 122°51'1 1.3
2018-Apr-19 15:59N 48°33' W 122°51'1 3.0
2018-Apr-19 15:30N 48°33' W 122°53'2 3.1
2018-Apr-19 14:59N 48°33' W 122°51'3 6.5
2018-Apr-19 14:29N 48°32' W 122°47'0 0.0
2018-Apr-18 22:22N 48°31' W 122°47'2 6.3
2018-Apr-18 22:00N 48°33' W 122°50'3 6.2
2018-Apr-18 21:30N 48°34' W 122°54'4 7.4
2018-Apr-18 21:00N 48°32' W 122°59'1 1.3
2018-Apr-18 20:30N 48°32' W 122°60'3 6.3
2018-Apr-18 20:00N 48°33' W 122°55'2 4.9
2018-Apr-18 19:30N 48°34' W 122°52'3 5.9
2018-Apr-18 19:00N 48°32' W 122°48'3 6.2
2018-Apr-18 18:30N 48°32' W 122°44'2 0.1
2018-Apr-17 22:10N 48°31' W 122°47'1 6.0
2018-Apr-17 21:59N 48°32' W 122°49'3 6.5
2018-Apr-17 21:28N 48°34' W 122°52'3 6.9
2018-Apr-17 21:00N 48°32' W 122°57'2 4.6
2018-Apr-17 20:29N 48°32' W 122°60'0 0.0
2018-Apr-17 20:00N 48°32' W 122°60'0 0.2
2018-Apr-17 19:29N 48°32' W 122°60'0 0.0
2018-Apr-17 18:59N 48°32' W 122°60'0 0.0
2018-Apr-17 18:20N 48°32' W 122°60'0 0.0
2018-Apr-17 17:59N 48°32' W 122°60'0 0.0
2018-Apr-17 17:28N 48°32' W 122°60'1 1.8
2018-Apr-17 16:59N 48°32' W 122°59'3 5.5
2018-Apr-17 16:29N 48°33' W 122°55'3 5.2
2018-Apr-17 16:00N 48°34' W 122°51'3 5.7
2018-Apr-17 15:30N 48°32' W 122°48'1 0.1
2018-Apr-17 00:20N 48°31' W 122°46'2 6.9
2018-Apr-17 00:00N 48°32' W 122°49'3 6.3
2018-Apr-16 23:29N 48°34' W 122°53'3 6.7
2018-Apr-16 22:59N 48°32' W 122°57'2 4.4
2018-Apr-16 22:29N 48°32' W 122°60'0 0.0
2018-Apr-16 21:53N 48°32' W 122°60'0 0.0
2018-Apr-16 21:29N 48°32' W 122°60'0 0.0
2018-Apr-16 20:53N 48°32' W 122°60'0 0.0
2018-Apr-16 20:30N 48°32' W 122°60'0 0.1
2018-Apr-16 19:51N 48°32' W 122°60'2 4.6
2018-Apr-16 19:30N 48°32' W 122°58'3 6.3
2018-Apr-16 19:00N 48°34' W 122°54'3 5.5
2018-Apr-16 18:30N 48°33' W 122°50'3 6.0
2018-Apr-16 18:00N 48°32' W 122°46'1 0.5
2018-Apr-16 15:43N 48°32' W 122°44'2 6.7
2018-Apr-16 15:29N 48°32' W 122°46'3 6.6
2018-Apr-16 15:00N 48°33' W 122°51'3 5.2
2018-Apr-16 14:30N 48°34' W 122°54'3 6.8
2018-Apr-16 14:00N 48°32' W 122°59'1 1.5
2018-Apr-16 13:29N 48°32' W 122°60'0 0.0
2018-Apr-16 12:59N 48°32' W 122°60'0 0.0
2018-Apr-16 12:29N 48°32' W 122°60'0 0.0
2018-Apr-16 11:59N 48°32' W 122°60'0 0.0
2018-Apr-16 11:29N 48°32' W 122°60'0 0.0
2018-Apr-16 10:59N 48°32' W 122°60'0 0.0
2018-Apr-16 10:29N 48°32' W 122°60'0 0.0
2018-Apr-16 09:59N 48°32' W 122°60'0 0.0
2018-Apr-16 09:29N 48°32' W 122°60'0 0.0
2018-Apr-16 08:59N 48°32' W 122°60'0 0.0
2018-Apr-16 08:29N 48°32' W 122°60'0 0.0
2018-Apr-16 07:59N 48°32' W 122°60'0 0.0
2018-Apr-16 07:29N 48°32' W 122°60'0 0.0
2018-Apr-16 06:59N 48°32' W 122°60'0 0.0
2018-Apr-16 06:29N 48°32' W 122°60'0 0.0
2018-Apr-16 05:59N 48°32' W 122°60'0 0.0
2018-Apr-16 05:29N 48°32' W 122°60'0 0.0
2018-Apr-16 04:59N 48°32' W 122°60'0 0.0
2018-Apr-16 04:29N 48°32' W 122°60'0 0.0
2018-Apr-16 03:59N 48°32' W 122°60'0 0.0
2018-Apr-16 03:29N 48°32' W 122°60'0 0.0
2018-Apr-16 02:59N 48°32' W 122°60'0 0.0
2018-Apr-16 02:29N 48°32' W 122°60'0 0.0
2018-Apr-16 01:59N 48°32' W 122°60'0 0.0
2018-Apr-16 01:29N 48°32' W 122°60'0 0.0
2018-Apr-16 01:00N 48°32' W 122°60'0 0.0
2018-Apr-16 00:30N 48°32' W 122°60'0 0.0
2018-Apr-15 23:50N 48°32' W 122°60'0 0.0
2018-Apr-15 23:29N 48°32' W 122°60'0 0.0
2018-Apr-15 22:59N 48°32' W 122°60'0 0.0
2018-Apr-15 22:29N 48°32' W 122°60'0 0.0
2018-Apr-15 21:59N 48°32' W 122°60'0 0.0
2018-Apr-15 21:29N 48°32' W 122°60'0 0.0
2018-Apr-15 20:59N 48°32' W 122°60'0 0.0
2018-Apr-15 20:29N 48°32' W 122°60'0 0.0
2018-Apr-15 19:59N 48°32' W 122°60'0 0.0
2018-Apr-15 19:26N 48°32' W 122°60'0 0.0
2018-Apr-15 18:59N 48°32' W 122°60'0 0.0
2018-Apr-15 18:29N 48°32' W 122°60'0 0.0
2018-Apr-15 17:59N 48°32' W 122°60'0 0.0
2018-Apr-15 17:29N 48°32' W 122°60'0 0.0
2018-Apr-15 16:56N 48°32' W 122°60'0 0.0
2018-Apr-15 16:26N 48°32' W 122°60'0 0.0
2018-Apr-15 15:53N 48°32' W 122°60'0 0.0
2018-Apr-15 15:29N 48°32' W 122°60'0 0.0
2018-Apr-15 14:56N 48°32' W 122°60'0 0.0
2018-Apr-15 14:29N 48°32' W 122°60'0 0.0
2018-Apr-15 13:59N 48°32' W 122°60'0 0.0
2018-Apr-15 13:29N 48°32' W 122°60'0 0.0
2018-Apr-15 12:59N 48°32' W 122°60'0 0.0
2018-Apr-15 12:20N 48°32' W 122°60'0 0.0
2018-Apr-15 11:59N 48°32' W 122°60'0 0.0
2018-Apr-15 11:17N 48°32' W 122°60'0 0.0
2018-Apr-15 10:59N 48°32' W 122°60'0 0.0
2018-Apr-15 10:29N 48°32' W 122°60'0 0.0
2018-Apr-15 09:59N 48°32' W 122°60'0 0.0
2018-Apr-15 09:26N 48°32' W 122°60'0 0.0
2018-Apr-15 08:56N 48°32' W 122°60'0 0.0
2018-Apr-15 08:29N 48°32' W 122°60'0 0.0
2018-Apr-15 07:59N 48°32' W 122°60'0 0.0
2018-Apr-15 07:29N 48°32' W 122°60'0 0.0
2018-Apr-15 06:59N 48°32' W 122°60'0 0.0
2018-Apr-15 06:29N 48°32' W 122°60'0 0.0
2018-Apr-15 05:59N 48°32' W 122°60'0 0.0
2018-Apr-15 05:14N 48°32' W 122°60'0 0.0
2018-Apr-15 04:59N 48°32' W 122°60'0 0.0
2018-Apr-15 04:29N 48°32' W 122°60'0 0.0
2018-Apr-15 03:59N 48°32' W 122°60'0 0.0
2018-Apr-15 03:29N 48°32' W 122°60'0 0.0
2018-Apr-15 02:59N 48°32' W 122°60'0 0.0
2018-Apr-15 02:29N 48°32' W 122°60'0 0.0
2018-Apr-15 01:59N 48°32' W 122°60'0 0.0
2018-Apr-15 01:29N 48°32' W 122°60'0 0.0
2018-Apr-15 00:59N 48°32' W 122°60'0 0.0
2018-Apr-15 00:29N 48°32' W 122°60'0 0.0
2018-Apr-14 23:59N 48°32' W 122°60'0 0.0
2018-Apr-14 23:23N 48°32' W 122°60'0 0.0
2018-Apr-14 22:59N 48°32' W 122°60'0 0.0
2018-Apr-14 22:29N 48°32' W 122°60'0 0.0
2018-Apr-14 21:59N 48°32' W 122°60'0 0.0
2018-Apr-14 21:29N 48°32' W 122°60'0 0.0
2018-Apr-14 20:59N 48°32' W 122°60'0 0.0
2018-Apr-14 20:29N 48°32' W 122°60'0 0.0
2018-Apr-14 19:59N 48°32' W 122°60'0 0.0
2018-Apr-14 19:29N 48°32' W 122°60'0 0.0
2018-Apr-14 18:53N 48°32' W 122°60'0 0.0
2018-Apr-14 18:29N 48°32' W 122°60'0 0.0
2018-Apr-14 17:59N 48°32' W 122°60'0 0.0
2018-Apr-14 17:29N 48°32' W 122°60'0 0.0
2018-Apr-14 16:59N 48°32' W 122°60'0 0.0
2018-Apr-14 16:29N 48°32' W 122°60'0 0.0
2018-Apr-14 15:59N 48°32' W 122°60'0 0.0
2018-Apr-14 15:29N 48°32' W 122°60'0 0.0
2018-Apr-14 14:53N 48°32' W 122°60'0 0.0
2018-Apr-14 14:29N 48°32' W 122°60'0 0.0
2018-Apr-14 13:59N 48°32' W 122°60'0 0.0
2018-Apr-14 13:23N 48°32' W 122°60'0 0.0
2018-Apr-14 12:59N 48°32' W 122°60'0 0.0
2018-Apr-14 12:29N 48°32' W 122°60'0 0.0
2018-Apr-14 11:59N 48°32' W 122°60'0 0.0
2018-Apr-14 11:29N 48°32' W 122°60'0 0.0
2018-Apr-14 10:59N 48°32' W 122°60'0 0.0
2018-Apr-14 10:23N 48°32' W 122°60'0 0.0
2018-Apr-14 09:59N 48°32' W 122°60'0 0.0
2018-Apr-14 09:23N 48°32' W 122°60'0 0.0
2018-Apr-14 08:59N 48°32' W 122°60'0 0.0
2018-Apr-14 08:29N 48°32' W 122°60'0 0.0
2018-Apr-14 07:53N 48°32' W 122°60'0 0.0
2018-Apr-14 07:29N 48°32' W 122°60'0 0.0
2018-Apr-14 06:59N 48°32' W 122°60'0 0.0
2018-Apr-14 06:29N 48°32' W 122°60'0 0.0
2018-Apr-14 05:59N 48°32' W 122°60'0 0.0
2018-Apr-14 05:29N 48°32' W 122°60'0 0.0
2018-Apr-14 04:59N 48°32' W 122°60'0 0.0
2018-Apr-14 04:29N 48°32' W 122°60'0 0.0
2018-Apr-14 03:59N 48°32' W 122°60'0 0.0
2018-Apr-14 03:26N 48°32' W 122°60'0 0.0
2018-Apr-14 02:59N 48°32' W 122°60'0 0.0
2018-Apr-14 02:29N 48°32' W 122°60'0 0.0
2018-Apr-14 01:59N 48°32' W 122°60'0 0.0
2018-Apr-14 01:29N 48°32' W 122°60'0 0.0
2018-Apr-14 00:53N 48°32' W 122°60'0 0.0
2018-Apr-14 00:29N 48°32' W 122°60'0 0.0
2018-Apr-13 23:59N 48°32' W 122°60'0 0.0
2018-Apr-13 23:29N 48°32' W 122°60'0 0.0
2018-Apr-13 22:59N 48°32' W 122°60'0 0.0
2018-Apr-13 22:29N 48°32' W 122°60'0 0.0
2018-Apr-13 21:59N 48°32' W 122°60'0 0.0
2018-Apr-13 21:20N 48°32' W 122°60'0 0.0
2018-Apr-13 20:59N 48°32' W 122°60'0 0.0
2018-Apr-13 20:29N 48°32' W 122°60'1 2.0
2018-Apr-13 20:00N 48°32' W 122°59'3 6.2
2018-Apr-13 19:30N 48°34' W 122°55'3 5.4
2018-Apr-13 19:00N 48°33' W 122°51'3 6.1
2018-Apr-13 18:30N 48°32' W 122°46'  

Dump ship's entire track history